createdAt,value
2022-09-28T00:01:42.492Z,83.60
2022-09-28T00:04:44.717Z,83.80
2022-09-28T00:07:46.581Z,83.60
2022-09-28T00:10:55.490Z,83.70
2022-09-28T00:14:00.932Z,84.00
2022-09-28T00:17:03.615Z,83.90
2022-09-28T00:20:06.019Z,84.50
2022-09-28T00:23:08.005Z,85.30
2022-09-28T00:26:10.145Z,85.30
2022-09-28T00:29:22.874Z,84.80
2022-09-28T00:32:24.985Z,84.90
2022-09-28T00:35:27.584Z,84.00
2022-09-28T00:38:29.800Z,85.10
2022-09-28T00:41:35.586Z,85.30
2022-09-28T00:44:51.180Z,85.50
2022-09-28T00:47:58.482Z,85.40
2022-09-28T00:51:06.303Z,85.30
2022-09-28T00:54:09.722Z,86.00
2022-09-28T00:57:15.587Z,85.50
2022-09-28T01:00:17.895Z,84.70
2022-09-28T01:03:19.920Z,85.80
2022-09-28T01:06:24.675Z,85.80
2022-09-28T01:09:27.804Z,85.60
2022-09-28T01:12:30.190Z,86.80
2022-09-28T01:15:39.500Z,86.20
2022-09-28T01:19:20.582Z,86.50
2022-09-28T01:22:34.197Z,86.90
2022-09-28T01:25:58.630Z,87.10
2022-09-28T01:29:13.861Z,87.20
2022-09-28T01:32:32.862Z,86.90
2022-09-28T01:35:51.887Z,87.20
2022-09-28T01:38:59.891Z,87.60
2022-09-28T01:42:10.205Z,87.80
2022-09-28T01:45:19.791Z,87.10
2022-09-28T01:48:35.049Z,87.40
2022-09-28T01:51:48.213Z,87.50
2022-09-28T01:55:06.167Z,87.80
2022-09-28T01:58:40.494Z,87.50
2022-09-28T02:02:11.288Z,87.40
2022-09-28T02:05:22.113Z,88.00
2022-09-28T02:08:31.107Z,87.60
2022-09-28T02:11:33.734Z,87.40
2022-09-28T02:14:40.696Z,87.50
2022-09-28T02:17:45.459Z,87.20
2022-09-28T02:21:08.959Z,87.10
2022-09-28T02:24:21.194Z,87.00
2022-09-28T02:27:55.003Z,86.90
2022-09-28T02:30:57.676Z,86.20
2022-09-28T02:33:59.722Z,85.80
2022-09-28T02:37:02.094Z,86.50
2022-09-28T02:40:20.631Z,86.70
2022-09-28T02:43:31.426Z,87.00
2022-09-28T02:47:05.568Z,87.30
2022-09-28T02:50:43.162Z,86.70
2022-09-28T02:53:50.546Z,87.00
2022-09-28T02:57:21.924Z,87.60
2022-09-28T03:00:24.570Z,87.80
2022-09-28T03:03:48.760Z,87.80
2022-09-28T03:07:07.667Z,87.50
2022-09-28T03:10:13.035Z,87.60
2022-09-28T03:13:16.472Z,87.50
2022-09-28T03:16:20.172Z,88.20
2022-09-28T03:19:28.243Z,87.60
2022-09-28T03:22:31.303Z,88.10
2022-09-28T03:25:33.310Z,87.30
2022-09-28T03:28:35.262Z,87.60
2022-09-28T03:31:38.224Z,87.60
2022-09-28T03:34:40.275Z,87.30
2022-09-28T03:37:42.546Z,87.00
2022-09-28T03:40:52.286Z,87.60
2022-09-28T03:43:54.542Z,86.90
2022-09-28T03:46:58.661Z,87.20
2022-09-28T03:50:00.624Z,86.90
2022-09-28T03:53:04.358Z,87.30
2022-09-28T03:56:08.966Z,86.80
2022-09-28T03:59:11.241Z,87.30
2022-09-28T04:02:19.132Z,87.10
2022-09-28T04:05:21.307Z,86.40
2022-09-28T04:08:23.417Z,87.10
2022-09-28T04:11:25.450Z,86.20
2022-09-28T04:14:27.586Z,86.50
2022-09-28T04:17:29.603Z,86.40
2022-09-28T04:20:31.794Z,86.70
2022-09-28T04:23:39.546Z,87.00
2022-09-28T04:26:41.745Z,86.60
2022-09-28T04:29:45.869Z,86.60
2022-09-28T04:32:49.489Z,86.30
2022-09-28T04:35:52.437Z,86.30
2022-09-28T04:38:56.808Z,86.30
2022-09-28T04:42:01.588Z,86.90
2022-09-28T04:45:04.031Z,86.60
2022-09-28T04:48:07.893Z,86.00
2022-09-28T04:51:38.940Z,86.00
2022-09-28T04:54:42.560Z,86.10
2022-09-28T04:57:45.668Z,85.90
2022-09-28T05:00:48.190Z,86.10
2022-09-28T05:04:04.493Z,86.30
2022-09-28T05:07:22.168Z,86.60
2022-09-28T05:10:26.974Z,86.50
2022-09-28T05:13:29.847Z,85.90
2022-09-28T05:16:32.172Z,86.50
2022-09-28T05:20:06.828Z,86.90
2022-09-28T05:23:13.407Z,86.10
2022-09-28T05:26:17.886Z,86.50
2022-09-28T05:29:19.993Z,85.70
2022-09-28T05:32:41.698Z,86.50
2022-09-28T05:35:57.853Z,86.50
2022-09-28T05:39:03.180Z,86.30
2022-09-28T05:42:06.803Z,85.90
2022-09-28T05:45:10.532Z,85.50
2022-09-28T05:48:15.171Z,85.80
2022-09-28T05:51:17.234Z,86.00
2022-09-28T05:54:19.611Z,86.20
2022-09-28T05:57:24.767Z,85.50
2022-09-28T06:00:27.796Z,85.70
2022-09-28T06:03:31.032Z,85.50
2022-09-28T06:06:35.444Z,85.60
2022-09-28T06:09:37.516Z,84.80
2022-09-28T06:13:07.791Z,85.70
2022-09-28T06:16:15.165Z,85.40
2022-09-28T06:19:17.244Z,85.30
2022-09-28T06:22:31.625Z,85.60
2022-09-28T06:25:40.838Z,85.20
2022-09-28T06:28:42.741Z,85.50
2022-09-28T06:31:46.213Z,85.70
2022-09-28T06:34:50.738Z,85.90
2022-09-28T06:37:56.963Z,85.90
2022-09-28T06:40:58.989Z,84.30
2022-09-28T06:44:01.162Z,84.50
2022-09-28T06:47:21.602Z,83.80
2022-09-28T06:50:42.856Z,84.20
2022-09-28T06:54:00.182Z,84.50
2022-09-28T06:57:15.856Z,83.60
2022-09-28T07:00:17.992Z,82.40
2022-09-28T07:03:23.040Z,80.90
2022-09-28T07:06:31.303Z,79.70
2022-09-28T07:09:55.791Z,78.00
2022-09-28T07:13:45.196Z,78.50
2022-09-28T07:17:08.457Z,75.80
2022-09-28T07:20:15.452Z,74.40
2022-09-28T07:23:20.510Z,72.80
2022-09-28T07:26:40.912Z,69.90
2022-09-28T07:29:57.596Z,70.20
2022-09-28T07:33:17.019Z,69.50
2022-09-28T07:36:24.193Z,65.80
2022-09-28T07:39:27.791Z,62.40
2022-09-28T07:42:31.026Z,62.80
2022-09-28T07:45:33.658Z,65.90
2022-09-28T07:48:35.697Z,63.60
2022-09-28T07:51:55.990Z,63.40
2022-09-28T07:55:07.041Z,62.00
2022-09-28T07:58:33.303Z,59.60
2022-09-28T08:01:50.362Z,60.00
2022-09-28T08:04:52.865Z,58.90
2022-09-28T08:07:54.674Z,56.70
2022-09-28T08:10:57.756Z,59.30
2022-09-28T08:14:19.905Z,58.40
2022-09-28T08:17:36.679Z,60.80
2022-09-28T08:20:41.922Z,62.80
2022-09-28T08:23:44.048Z,64.50
2022-09-28T08:26:46.549Z,68.70
2022-09-28T08:29:51.392Z,67.00
2022-09-28T08:33:14.595Z,64.70
2022-09-28T08:36:16.777Z,65.90
2022-09-28T08:39:50.973Z,63.90
2022-09-28T08:43:43.489Z,64.50
2022-09-28T08:47:07.923Z,66.30
2022-09-28T08:50:31.383Z,69.30
2022-09-28T08:54:23.893Z,70.10
2022-09-28T08:57:47.062Z,72.50
2022-09-28T09:00:53.236Z,72.20
2022-09-28T09:03:58.082Z,75.10
2022-09-28T09:07:26.339Z,74.70
2022-09-28T09:10:57.465Z,74.30
2022-09-28T09:14:27.418Z,72.50
2022-09-28T09:18:01.283Z,66.40
2022-09-28T09:21:27.698Z,61.60
2022-09-28T09:24:59.740Z,60.90
2022-09-28T09:28:23.175Z,60.80
2022-09-28T09:31:36.393Z,59.40
2022-09-28T09:35:05.727Z,54.50
2022-09-28T09:38:45.641Z,59.50
2022-09-28T09:42:45.854Z,59.80
2022-09-28T09:46:23.176Z,57.80
2022-09-28T09:50:10.254Z,55.80
2022-09-28T09:53:29.873Z,57.70
2022-09-28T09:56:49.735Z,61.30
2022-09-28T09:59:57.105Z,58.60
2022-09-28T10:03:28.628Z,55.50
2022-09-28T10:06:39.040Z,59.10
2022-09-28T10:09:46.685Z,62.20
2022-09-28T10:12:57.483Z,61.40
2022-09-28T10:15:59.731Z,58.90
2022-09-28T10:19:11.791Z,60.80
2022-09-28T10:22:33.270Z,62.40
2022-09-28T10:25:46.245Z,60.70
2022-09-28T10:28:59.051Z,61.70
2022-09-28T10:32:01.589Z,63.00
2022-09-28T10:35:21.094Z,62.80
2022-09-28T10:38:30.360Z,64.10
2022-09-28T10:41:50.350Z,64.70
2022-09-28T10:45:24.081Z,67.00
2022-09-28T10:48:28.173Z,67.10
2022-09-28T11:03:24.648Z,67.50
2022-09-28T11:06:32.800Z,69.20
2022-09-28T11:09:43.464Z,69.00
2022-09-28T11:12:49.369Z,68.80
2022-09-28T11:15:51.615Z,68.80
2022-09-28T11:19:06.555Z,68.80
2022-09-28T11:22:40.662Z,65.40
2022-09-28T11:25:44.113Z,62.10
2022-09-28T11:28:51.620Z,60.70
2022-09-28T11:32:05.953Z,62.00
2022-09-28T11:35:32.161Z,59.70
2022-09-28T11:39:07.747Z,63.00
2022-09-28T11:42:52.709Z,64.60
2022-09-28T11:46:03.694Z,64.00
2022-09-28T11:49:34.196Z,64.10
2022-09-28T11:53:02.555Z,63.80
2022-09-28T11:56:16.798Z,63.70
2022-09-28T11:59:32.837Z,65.30
2022-09-28T12:02:42.694Z,59.70
2022-09-28T12:05:59.479Z,59.10
2022-09-28T12:09:17.810Z,59.60
2022-09-28T12:12:48.726Z,58.20
2022-09-28T12:16:45.244Z,58.50
2022-09-28T12:19:32.121Z,59.40
2022-09-28T12:22:47.222Z,61.70
2022-09-28T12:25:59.030Z,62.60
2022-09-28T12:29:05.074Z,63.50
2022-09-28T12:32:30.243Z,64.30
2022-09-28T12:36:03.382Z,64.50
2022-09-28T12:39:18.984Z,67.50
2022-09-28T12:43:01.342Z,64.50
2022-09-28T12:46:21.892Z,65.70
2022-09-28T12:50:37.184Z,65.10
2022-09-28T12:53:43.510Z,65.90
2022-09-28T12:57:33.531Z,65.60
2022-09-28T13:00:51.440Z,63.00
2022-09-28T13:04:17.395Z,64.00
2022-09-28T13:07:41.084Z,62.60
2022-09-28T13:11:08.056Z,63.20
2022-09-28T13:14:31.416Z,66.60
2022-09-28T13:17:51.532Z,70.30
2022-09-28T13:21:13.398Z,67.30
2022-09-28T13:24:32.389Z,68.30
2022-09-28T13:27:40.521Z,72.40
2022-09-28T13:30:44.977Z,69.00
2022-09-28T13:33:48.342Z,68.20
2022-09-28T13:37:14.935Z,66.00
2022-09-28T13:40:16.900Z,64.20
2022-09-28T13:43:31.499Z,62.50
2022-09-28T13:46:45.447Z,63.30
2022-09-28T13:49:50.311Z,62.50
2022-09-28T13:53:19.832Z,64.00
2022-09-28T13:56:26.655Z,64.10
2022-09-28T13:59:30.331Z,64.30
2022-09-28T14:02:39.949Z,63.30
2022-09-28T14:06:00.464Z,62.00
2022-09-28T14:09:14.259Z,62.70
2022-09-28T14:12:36.413Z,64.20
2022-09-28T14:15:40.842Z,62.30
2022-09-28T14:18:48.350Z,62.50
2022-09-28T14:22:11.478Z,63.60
2022-09-28T14:25:20.889Z,62.50
2022-09-28T14:28:55.369Z,63.10
2022-09-28T14:32:03.727Z,62.70
2022-09-28T14:35:18.755Z,63.00
2022-09-28T14:38:50.506Z,61.20
2022-09-28T14:41:52.411Z,62.70
2022-09-28T14:45:06.592Z,61.80
2022-09-28T14:48:18.067Z,62.40
2022-09-28T14:51:25.723Z,63.60
2022-09-28T14:54:36.135Z,61.90
2022-09-28T14:57:41.567Z,62.60
2022-09-28T15:00:45.868Z,64.60
2022-09-28T15:03:51.627Z,64.40
2022-09-28T15:06:53.997Z,63.40
2022-09-28T15:10:00.323Z,62.70
2022-09-28T15:13:05.509Z,64.70
2022-09-28T15:16:10.708Z,64.00
2022-09-28T15:19:30.250Z,61.40
2022-09-28T15:22:32.184Z,62.70
2022-09-28T15:25:34.141Z,65.10
2022-09-28T15:28:36.931Z,65.90
2022-09-28T15:31:38.806Z,66.50
2022-09-28T15:34:40.737Z,65.80
2022-09-28T15:37:43.619Z,66.60
2022-09-28T15:40:46.550Z,67.00
2022-09-28T15:44:07.040Z,67.20
2022-09-28T15:47:13.730Z,66.20
2022-09-28T15:50:28.316Z,66.30
2022-09-28T15:53:30.341Z,66.80
2022-09-28T15:56:32.276Z,69.20
2022-09-28T15:59:39.603Z,69.40
2022-09-28T16:02:58.307Z,71.00
2022-09-28T16:06:09.898Z,71.10
2022-09-28T16:09:38.916Z,71.40
2022-09-28T16:12:59.248Z,68.60
2022-09-28T16:16:01.398Z,68.20
2022-09-28T16:19:03.529Z,68.60
2022-09-28T16:22:11.741Z,68.60
2022-09-28T16:25:25.781Z,68.50
2022-09-28T16:28:34.497Z,67.70
2022-09-28T16:31:38.082Z,68.40
2022-09-28T16:34:40.474Z,68.80
2022-09-28T16:37:42.652Z,69.80
2022-09-28T16:40:50.115Z,68.70
2022-09-28T16:43:59.009Z,70.90
2022-09-28T16:47:00.912Z,69.50
2022-09-28T16:50:06.045Z,70.80
2022-09-28T16:53:16.648Z,71.10
2022-09-28T16:56:18.623Z,69.30
2022-09-28T16:59:20.569Z,68.50
2022-09-28T17:02:45.921Z,68.70
2022-09-28T17:05:47.522Z,68.90
2022-09-28T17:08:49.540Z,68.10
2022-09-28T17:11:51.410Z,69.30
2022-09-28T17:14:53.303Z,69.60
2022-09-28T17:17:55.174Z,70.70
2022-09-28T17:20:58.406Z,70.80
2022-09-28T17:24:00.573Z,68.60
2022-09-28T17:27:02.936Z,67.10
2022-09-28T17:30:05.152Z,68.30
2022-09-28T17:33:08.756Z,68.40
2022-09-28T17:36:14.992Z,70.90
2022-09-28T17:39:18.953Z,70.40
2022-09-28T17:42:20.858Z,69.80
2022-09-28T17:45:24.694Z,72.90
2022-09-28T17:48:26.855Z,71.40
2022-09-28T17:51:30.337Z,69.50
2022-09-28T17:54:32.253Z,66.80
2022-09-28T17:57:34.220Z,67.00
2022-09-28T18:00:36.115Z,70.10
2022-09-28T18:03:38.042Z,69.30
2022-09-28T18:06:43.865Z,69.80
2022-09-28T18:09:45.772Z,70.00
2022-09-28T18:12:48.593Z,71.10
2022-09-28T18:15:52.290Z,72.00
2022-09-28T18:18:54.285Z,73.80
2022-09-28T18:21:56.185Z,74.10
2022-09-28T18:24:58.093Z,74.80
2022-09-28T18:28:00.207Z,75.10
2022-09-28T18:31:10.955Z,74.50
2022-09-28T18:34:12.997Z,74.80
2022-09-28T18:37:15.044Z,75.20
2022-09-28T18:40:17.340Z,75.70
2022-09-28T18:46:26.654Z,76.40
2022-09-28T18:49:31.201Z,76.20
2022-09-28T18:52:36.712Z,76.50
2022-09-28T18:55:42.934Z,76.80
2022-09-28T18:58:46.160Z,77.00
2022-09-28T19:01:48.455Z,77.00
2022-09-28T19:04:50.592Z,77.40
2022-09-28T19:07:52.673Z,77.70
2022-09-28T19:11:06.709Z,78.00
2022-09-28T19:14:09.803Z,78.30
2022-09-28T19:17:11.859Z,78.60
2022-09-28T19:20:14.341Z,78.80
2022-09-28T19:23:16.336Z,79.90
2022-09-28T19:26:23.709Z,79.80
2022-09-28T19:29:25.676Z,79.70
2022-09-28T19:32:29.382Z,79.60
2022-09-28T19:35:31.320Z,79.60
2022-09-28T19:38:35.102Z,80.00
2022-09-28T19:41:39.546Z,80.30
2022-09-28T19:44:44.089Z,80.10
2022-09-28T19:47:49.480Z,80.20
2022-09-28T19:50:55.657Z,80.50
2022-09-28T19:53:58.326Z,80.10
2022-09-28T19:57:00.795Z,80.60
2022-09-28T20:00:05.696Z,80.30
2022-09-28T20:03:07.677Z,80.30
2022-09-28T20:06:12.729Z,80.10
2022-09-28T20:09:17.239Z,80.10
2022-09-28T20:12:19.344Z,80.50
2022-09-28T20:15:21.281Z,80.70
2022-09-28T20:18:24.530Z,80.30
2022-09-28T20:21:26.990Z,80.10
2022-09-28T20:24:29.160Z,80.50
2022-09-28T20:27:31.180Z,81.00
2022-09-28T20:30:33.323Z,80.70
2022-09-28T20:33:36.539Z,81.10
2022-09-28T20:36:38.537Z,80.80
2022-09-28T20:39:44.780Z,80.90
2022-09-28T20:42:47.309Z,80.70
2022-09-28T20:45:49.999Z,80.40
2022-09-28T20:48:53.062Z,80.40
2022-09-28T20:51:55.505Z,80.70
2022-09-28T20:54:59.858Z,80.60
2022-09-28T20:58:04.787Z,80.70
2022-09-28T21:01:19.167Z,81.00
2022-09-28T21:04:21.392Z,81.00
2022-09-28T21:07:23.650Z,81.10
2022-09-28T21:10:25.750Z,80.60
2022-09-28T21:13:27.818Z,80.90
2022-09-28T21:16:32.163Z,81.10
2022-09-28T21:19:34.173Z,81.20
2022-09-28T21:22:36.201Z,81.60
2022-09-28T21:25:38.428Z,81.20
2022-09-28T21:28:40.522Z,81.10
2022-09-28T21:31:44.948Z,81.40
2022-09-28T21:34:46.947Z,81.70
2022-09-28T21:37:49.051Z,81.80
2022-09-28T21:40:55.157Z,81.70
2022-09-28T21:43:58.231Z,81.50
2022-09-28T21:47:00.141Z,81.50
2022-09-28T21:50:02.421Z,81.70
2022-09-28T21:53:04.660Z,81.70
2022-09-28T21:56:12.102Z,81.60
2022-09-28T21:59:14.045Z,81.70
2022-09-28T22:02:16.128Z,81.70
2022-09-28T22:05:18.718Z,81.90
2022-09-28T22:08:21.599Z,82.10
2022-09-28T22:11:26.861Z,82.20
2022-09-28T22:14:28.965Z,82.10
2022-09-28T22:17:31.122Z,82.20
2022-09-28T22:23:40.985Z,82.40
2022-09-28T22:26:43.128Z,82.40
2022-09-28T22:29:45.236Z,82.60
2022-09-28T22:32:47.278Z,82.90
2022-09-28T22:35:49.636Z,83.00
2022-09-28T22:38:52.250Z,83.00
2022-09-28T22:41:55.399Z,83.10
2022-09-28T22:44:57.505Z,83.40
2022-09-28T22:47:59.505Z,83.40
2022-09-28T22:51:02.734Z,83.60
2022-09-28T22:54:05.106Z,84.00
2022-09-28T22:57:07.044Z,84.10
2022-09-28T23:00:09.551Z,83.60
2022-09-28T23:03:13.535Z,83.30
2022-09-28T23:06:17.617Z,83.00
2022-09-28T23:09:19.643Z,83.60
2022-09-28T23:12:21.702Z,83.50
2022-09-28T23:15:24.059Z,83.40
2022-09-28T23:18:30.742Z,83.50
2022-09-28T23:21:32.755Z,83.60
2022-09-28T23:24:34.723Z,83.90
2022-09-28T23:27:36.739Z,83.50
2022-09-28T23:30:40.206Z,83.70
2022-09-28T23:33:42.527Z,83.20
2022-09-28T23:36:44.782Z,83.40
2022-09-28T23:39:46.765Z,83.60
2022-09-28T23:42:50.501Z,83.20
2022-09-28T23:45:52.515Z,83.50
2022-09-28T23:48:54.750Z,83.70
2022-09-28T23:51:56.869Z,83.20
2022-09-28T23:54:59.683Z,83.30
2022-09-28T23:58:01.613Z,82.80
